Time;durP1;ratioP1;P1;durP2;ratioP2;P2;SDS_P1;SDS_P2;PMS_P1;PMS_P2;Temp;Humidity;BMP_temperature;BMP_pressure;BME280_temperature;BME280_humidity;BME280_pressure;Samples;Min_cycle;Max_cycle;Signal;HPM_P1;HPM_P2
2022/06/06 00:00:04;;;;;;;5.07;1.88;;;21.50;75.30;;;;;;5048319;28;20021;-58
2022/06/06 00:02:30;;;;;;;4.53;1.95;;;21.50;74.60;;;;;;5057633;28;20107;-60
2022/06/06 00:04:57;;;;;;;6.03;2.10;;;21.50;74.60;;;;;;5059620;28;20383;-59
2022/06/06 00:07:23;;;;;;;4.00;2.10;;;21.50;74.60;;;;;;5034836;28;20464;-60
2022/06/06 00:09:49;;;;;;;8.05;2.17;;;21.50;74.30;;;;;;5056485;28;20013;-59
2022/06/06 00:12:16;;;;;;;7.18;2.13;;;21.60;74.50;;;;;;5057444;28;20489;-59
2022/06/06 00:14:42;;;;;;;6.65;2.28;;;21.70;74.20;;;;;;5060256;28;20057;-60
2022/06/06 00:17:08;;;;;;;5.53;2.20;;;21.80;73.70;;;;;;5041166;28;20025;-59
2022/06/06 00:19:34;;;;;;;4.70;2.22;;;21.80;73.50;;;;;;5060299;28;20488;-59
2022/06/06 00:22:00;;;;;;;5.40;2.28;;;21.80;73.60;;;;;;5058343;28;20028;-60
2022/06/06 00:24:26;;;;;;;7.45;2.80;;;21.80;73.80;;;;;;5064952;28;20508;-60
2022/06/06 00:26:51;;;;;;;7.43;2.00;;;21.80;73.90;;;;;;5058868;28;20474;-59
2022/06/06 00:29:20;;;;;;;6.30;2.10;;;21.90;73.40;;;;;;5040994;28;20024;-60
2022/06/06 00:34:49;;;;;;;8.18;2.28;;;21.80;73.00;;;;;;5064073;28;20071;-59
2022/06/06 00:37:18;;;;;;;8.60;2.90;;;21.80;73.20;;;;;;5062127;28;20028;-59
2022/06/06 00:39:45;;;;;;;5.72;1.90;;;21.80;73.40;;;;;;5060384;28;20108;-59
2022/06/06 00:42:22;;;;;;;8.32;1.88;;;21.90;73.10;;;;;;5041042;28;20437;-59
2022/06/06 00:44:48;;;;;;;5.00;2.00;;;21.90;73.10;;;;;;5063731;28;20044;-59
2022/06/06 00:47:24;;;;;;;4.80;2.00;;;22.00;72.60;;;;;;5061191;28;20103;-60
2022/06/06 00:49:55;;;;;;;4.65;2.17;;;22.00;72.40;;;;;;5056751;28;20021;-58
2022/06/06 00:52:29;;;;;;;6.57;2.17;;;22.00;72.20;;;;;;5055843;28;20527;-60
2022/06/06 00:55:00;;;;;;;5.43;2.50;;;22.10;72.20;;;;;;5064108;28;20024;-60
2022/06/06 00:57:31;;;;;;;6.47;2.25;;;22.10;72.20;;;;;;5058168;28;20078;-59
2022/06/06 01:00:00;;;;;;;4.38;1.90;;;22.20;72.40;;;;;;5064759;28;20029;-58
2022/06/06 01:02:26;;;;;;;4.30;2.10;;;22.10;72.40;;;;;;5061671;28;20047;-58
2022/06/06 01:04:53;;;;;;;3.92;1.90;;;22.10;72.30;;;;;;5059322;28;20023;-59
2022/06/06 01:07:19;;;;;;;3.67;1.90;;;22.00;72.70;;;;;;5059833;28;20032;-59
2022/06/06 01:09:45;;;;;;;4.82;2.08;;;22.00;72.60;;;;;;5063440;28;20120;-58
2022/06/06 01:12:19;;;;;;;5.50;2.10;;;21.90;72.80;;;;;;5045363;28;20024;-58
2022/06/06 01:14:55;;;;;;;5.05;2.20;;;21.90;73.00;;;;;;5063077;28;20044;-59
2022/06/06 01:18:13;;;;;;;4.50;2.03;;;21.90;73.10;;;;;;5059568;28;20025;-60
2022/06/06 01:20:44;;;;;;;5.18;2.38;;;21.90;73.30;;;;;;4988114;28;20144;-59
2022/06/06 01:23:21;;;;;;;4.75;2.40;;;22.00;73.00;;;;;;5004646;28;20052;-59
2022/06/06 01:26:21;;;;;;;4.45;2.28;;;22.00;73.00;;;;;;5043073;28;20036;-60
2022/06/06 01:29:23;;;;;;;4.60;2.30;;;22.10;73.00;;;;;;5057761;28;20025;-58
2022/06/06 01:32:02;;;;;;;4.93;2.25;;;22.20;72.90;;;;;;5041535;28;20120;-58
2022/06/06 01:34:32;;;;;;;5.90;1.90;;;22.20;72.60;;;;;;5041391;28;20159;-59
2022/06/06 01:36:59;;;;;;;3.40;1.95;;;22.20;72.70;;;;;;5058352;28;20037;-59
2022/06/06 01:39:28;;;;;;;4.97;1.85;;;22.10;72.80;;;;;;5057875;28;20039;-60
2022/06/06 01:42:07;;;;;;;4.13;2.13;;;22.20;72.80;;;;;;5057318;28;20095;-59
2022/06/06 01:44:55;;;;;;;4.32;2.10;;;22.20;72.60;;;;;;5068167;28;20040;-60
2022/06/06 01:47:31;;;;;;;4.90;2.20;;;22.20;72.60;;;;;;5052604;28;20038;-60
2022/06/06 01:49:58;;;;;;;7.13;2.20;;;22.10;72.50;;;;;;5069586;28;20029;-59
2022/06/06 01:52:24;;;;;;;4.38;1.92;;;22.00;72.80;;;;;;5066315;28;20039;-59
2022/06/06 01:54:56;;;;;;;4.65;1.90;;;21.90;73.10;;;;;;5071975;28;20050;-58
2022/06/06 01:57:23;;;;;;;5.20;1.92;;;21.90;73.30;;;;;;5073589;28;20107;-60
2022/06/06 01:59:51;;;;;;;7.85;2.17;;;21.90;73.30;;;;;;5051480;28;20028;-58
2022/06/06 02:02:16;;;;;;;5.00;1.83;;;21.80;73.00;;;;;;5069945;28;20029;-58
2022/06/06 02:04:42;;;;;;;3.30;1.70;;;21.80;73.10;;;;;;5069581;28;20051;-58
2022/06/06 02:07:08;;;;;;;3.95;1.77;;;21.90;73.20;;;;;;5069739;28;20135;-59
2022/06/06 02:09:33;;;;;;;5.20;1.95;;;22.00;73.00;;;;;;5069416;28;20033;-59
2022/06/06 02:12:00;;;;;;;7.85;1.88;;;22.10;72.70;;;;;;5072304;28;20470;-58
2022/06/06 02:14:26;;;;;;;5.10;1.60;;;22.00;72.20;;;;;;5071507;28;20037;-58
2022/06/06 02:16:52;;;;;;;3.80;2.03;;;22.10;72.00;;;;;;5070639;28;20090;-58
2022/06/06 02:19:18;;;;;;;3.60;1.77;;;22.10;72.30;;;;;;5070875;28;20044;-58
2022/06/06 02:21:44;;;;;;;6.55;2.45;;;22.10;72.50;;;;;;5070837;28;20077;-57
2022/06/06 02:24:10;;;;;;;5.15;1.98;;;22.20;72.60;;;;;;5072000;28;20033;-58
2022/06/06 02:26:35;;;;;;;4.43;1.70;;;22.20;72.40;;;;;;5070589;28;20525;-59
2022/06/06 02:29:02;;;;;;;6.05;1.85;;;22.10;72.30;;;;;;5071146;28;20369;-59
2022/06/06 02:31:28;;;;;;;7.53;2.10;;;22.10;72.10;;;;;;5069752;28;20056;-59
2022/06/06 02:33:54;;;;;;;5.95;2.00;;;22.20;72.10;;;;;;5071424;28;20036;-58
2022/06/06 02:36:20;;;;;;;4.43;2.08;;;22.00;72.10;;;;;;5070996;28;20020;-60
2022/06/06 02:38:46;;;;;;;5.43;2.10;;;22.00;72.40;;;;;;5043264;28;20028;-61
2022/06/06 02:41:12;;;;;;;5.95;2.00;;;21.90;72.50;;;;;;5070287;28;20061;-59
2022/06/06 02:43:40;;;;;;;3.90;1.83;;;22.00;72.70;;;;;;5063313;28;20055;-58
2022/06/06 02:46:07;;;;;;;4.82;2.17;;;22.00;72.40;;;;;;5039988;28;20373;-59
2022/06/06 02:48:33;;;;;;;3.60;1.77;;;22.00;72.20;;;;;;5061051;28;20028;-60
2022/06/06 02:51:00;;;;;;;5.45;1.85;;;22.00;72.40;;;;;;5069710;28;20029;-59
2022/06/06 02:53:26;;;;;;;5.75;1.90;;;22.00;72.30;;;;;;5059842;28;20132;-60
2022/06/06 02:55:53;;;;;;;4.47;1.83;;;22.00;72.30;;;;;;5065132;28;20040;-58
2022/06/06 02:58:24;;;;;;;7.03;1.92;;;21.90;72.20;;;;;;5047576;28;20098;-58
2022/06/06 03:00:57;;;;;;;3.63;1.60;;;21.90;72.60;;;;;;5068391;28;20326;-58
2022/06/06 03:03:22;;;;;;;4.07;1.77;;;21.90;72.40;;;;;;5060814;28;20094;-59
2022/06/06 03:05:53;;;;;;;4.72;2.00;;;21.90;72.20;;;;;;5043049;28;20276;-58
2022/06/06 03:08:39;;;;;;;5.43;1.80;;;21.90;72.30;;;;;;5065336;28;20021;-60
2022/06/06 03:11:42;;;;;;;5.03;2.00;;;21.80;72.40;;;;;;5007420;28;20112;-60
2022/06/06 03:14:23;;;;;;;4.57;1.88;;;21.80;72.20;;;;;;5057871;28;20044;-59
2022/06/06 03:20:46;;;;;;;5.90;1.90;;;21.80;72.30;;;;;;5053569;28;20564;-59
2022/06/06 03:23:46;;;;;;;5.22;1.80;;;21.80;72.30;;;;;;5060401;28;20086;-57
2022/06/06 03:26:26;;;;;;;3.17;1.60;;;21.80;72.50;;;;;;5067841;28;20028;-58
2022/06/06 03:29:17;;;;;;;4.15;1.80;;;21.80;72.10;;;;;;5064174;28;20491;-59
2022/06/06 03:31:46;;;;;;;6.13;2.10;;;21.80;72.40;;;;;;5041841;28;20025;-59
2022/06/06 03:34:11;;;;;;;4.43;2.13;;;21.80;72.40;;;;;;5066473;28;20037;-59
2022/06/06 03:37:03;;;;;;;4.40;2.10;;;21.90;72.30;;;;;;5048762;28;20078;-57
2022/06/06 03:39:44;;;;;;;5.07;2.10;;;22.00;72.20;;;;;;5023334;28;20036;-59
2022/06/06 03:42:53;;;;;;;5.15;1.90;;;22.20;72.10;;;;;;5060682;28;20037;-58
2022/06/06 03:45:29;;;;;;;8.52;2.60;;;22.20;71.90;;;;;;5021188;28;20111;-58
2022/06/06 03:48:10;;;;;;;4.00;2.08;;;22.20;71.70;;;;;;5062350;28;20029;-58
2022/06/06 03:51:00;;;;;;;6.55;1.90;;;22.20;71.80;;;;;;5055157;28;20028;-59
2022/06/06 03:53:38;;;;;;;5.18;1.70;;;22.20;71.10;;;;;;5057745;28;20040;-60
2022/06/06 03:56:45;;;;;;;4.68;1.75;;;22.20;70.40;;;;;;5041662;28;20032;-58
2022/06/06 03:59:13;;;;;;;3.30;1.75;;;22.20;69.90;;;;;;5062328;28;20389;-58
2022/06/06 04:01:41;;;;;;;4.28;1.45;;;22.20;69.50;;;;;;5059394;28;20066;-58
2022/06/06 04:04:07;;;;;;;3.78;1.50;;;22.20;68.80;;;;;;5059540;28;20543;-59
2022/06/06 04:06:34;;;;;;;5.45;1.60;;;22.20;68.70;;;;;;5043925;28;20474;-59
2022/06/06 04:09:00;;;;;;;4.95;1.83;;;22.20;68.50;;;;;;5065354;28;20020;-58
2022/06/06 04:11:29;;;;;;;3.45;1.45;;;22.20;68.40;;;;;;5045029;28;20474;-61
2022/06/06 04:13:54;;;;;;;3.75;1.45;;;22.10;68.20;;;;;;5061277;28;20067;-59
2022/06/06 04:16:35;;;;;;;3.88;1.77;;;22.20;68.40;;;;;;5065847;28;20481;-59
2022/06/06 04:19:16;;;;;;;5.75;1.75;;;22.10;68.60;;;;;;5067109;28;20036;-59
2022/06/06 04:21:47;;;;;;;6.03;1.73;;;22.20;68.60;;;;;;5061924;28;20025;-60
2022/06/06 04:24:50;;;;;;;3.08;1.50;;;22.20;68.20;;;;;;5044859;28;20461;-59
2022/06/06 04:27:23;;;;;;;5.05;1.77;;;22.10;68.50;;;;;;5060759;28;20033;-58
2022/06/06 04:29:59;;;;;;;7.18;2.72;;;22.10;68.60;;;;;;5063869;28;20024;-59
2022/06/06 04:32:40;;;;;;;2.80;1.55;;;22.10;68.70;;;;;;5062408;28;20043;-60
2022/06/06 04:35:24;;;;;;;3.50;1.85;;;22.10;68.30;;;;;;5063639;28;20553;-58
2022/06/06 04:38:13;;;;;;;3.70;2.00;;;22.10;68.50;;;;;;5059535;28;20024;-60
2022/06/06 04:40:56;;;;;;;3.78;1.92;;;22.00;68.60;;;;;;5062514;28;20025;-58
2022/06/06 04:43:46;;;;;;;5.50;1.85;;;21.90;69.20;;;;;;5061628;28;20082;-57
2022/06/06 04:46:17;;;;;;;4.25;1.70;;;21.90;69.20;;;;;;5062425;28;20373;-58
2022/06/06 04:48:44;;;;;;;4.43;2.00;;;21.80;69.50;;;;;;5061506;28;20462;-59
2022/06/06 04:51:12;;;;;;;4.22;1.80;;;21.90;69.30;;;;;;5060622;28;20052;-59
2022/06/06 04:53:42;;;;;;;5.00;2.28;;;21.80;69.10;;;;;;5061464;28;20029;-58
2022/06/06 04:56:08;;;;;;;3.83;1.50;;;21.80;69.30;;;;;;5059087;28;20049;-58
2022/06/06 04:58:36;;;;;;;7.45;2.15;;;21.80;69.30;;;;;;5061979;28;20457;-57
2022/06/06 05:01:03;;;;;;;5.95;1.80;;;21.90;69.40;;;;;;5063348;28;20048;-58
2022/06/06 05:03:28;;;;;;;4.75;2.22;;;21.90;69.10;;;;;;5062928;28;20119;-61
2022/06/06 05:06:19;;;;;;;5.28;1.85;;;21.90;69.10;;;;;;5065163;28;20473;-58
2022/06/06 05:09:16;;;;;;;8.88;2.03;;;21.90;69.60;;;;;;5047554;28;20078;-59
2022/06/06 05:11:59;;;;;;;3.88;1.80;;;22.10;69.10;;;;;;5060715;28;20052;-60
2022/06/06 05:14:57;;;;;;;5.65;2.30;;;22.20;68.80;;;;;;5042849;28;20471;-61
2022/06/06 05:17:23;;;;;;;4.30;2.10;;;22.30;68.20;;;;;;5065340;28;20033;-59
2022/06/06 05:20:17;;;;;;;5.95;2.35;;;22.30;68.20;;;;;;5066501;28;20657;-61
2022/06/06 05:23:01;;;;;;;;;;;22.20;68.60;;;;;;5058135;28;20040;-58
2022/06/06 05:25:45;;;;;;;3.75;2.30;;;22.20;68.40;;;;;;5060313;28;20003;-59
2022/06/06 05:28:10;;;;;;;7.00;2.47;;;22.20;68.70;;;;;;5061106;28;20035;-60
2022/06/06 05:31:34;;;;;;;5.95;2.67;;;22.10;69.50;;;;;;5044046;28;20032;-59
2022/06/06 05:34:05;;;;;;;6.15;2.83;;;22.10;69.10;;;;;;4952400;28;20428;-62
2022/06/06 05:36:33;;;;;;;7.38;2.80;;;22.00;69.20;;;;;;5042491;28;20041;-60
2022/06/06 05:39:20;;;;;;;5.90;2.95;;;22.00;69.30;;;;;;5058843;28;20027;-59
2022/06/06 05:42:03;;;;;;;6.22;3.08;;;22.00;69.40;;;;;;5063009;28;20041;-59
2022/06/06 05:44:41;;;;;;;8.85;3.08;;;22.00;69.60;;;;;;5062570;28;20047;-59
2022/06/06 05:47:06;;;;;;;3.83;3.00;;;22.10;69.40;;;;;;5060269;28;20079;-59
2022/06/06 05:49:38;;;;;;;11.15;3.20;;;21.90;69.40;;;;;;5059635;28;20029;-59
2022/06/06 05:52:19;;;;;;;6.68;2.90;;;22.00;69.50;;;;;;5062514;28;20102;-57
2022/06/06 05:54:51;;;;;;;6.68;3.03;;;22.00;69.30;;;;;;5057498;28;20377;-58
2022/06/06 05:57:38;;;;;;;5.25;3.22;;;22.00;69.60;;;;;;5055404;28;20040;-58
2022/06/06 06:00:10;;;;;;;6.82;3.08;;;22.00;69.70;;;;;;5062537;28;20106;-58
2022/06/06 06:02:51;;;;;;;4.43;2.97;;;22.00;69.50;;;;;;5038201;28;20116;-59
2022/06/06 06:05:29;;;;;;;7.47;3.05;;;22.00;69.90;;;;;;5056959;28;20036;-59
2022/06/06 06:08:05;;;;;;;6.40;2.90;;;22.10;69.70;;;;;;5065749;28;20025;-59
2022/06/06 06:10:49;;;;;;;9.68;3.15;;;22.30;69.20;;;;;;5062388;28;20386;-60
2022/06/06 06:13:33;;;;;;;7.65;2.80;;;22.50;68.20;;;;;;5060952;28;20084;-60
2022/06/06 06:16:03;;;;;;;7.72;2.67;;;22.70;67.60;;;;;;5062193;28;20537;-59
2022/06/06 06:18:41;;;;;;;5.72;3.00;;;22.70;67.30;;;;;;5063454;28;20392;-59
2022/06/06 06:21:33;;;;;;;4.78;2.67;;;22.90;67.00;;;;;;5071291;28;20540;-60
2022/06/06 06:24:11;;;;;;;4.60;2.95;;;23.00;66.50;;;;;;5062741;28;20078;-59
2022/06/06 06:26:39;;;;;;;5.47;2.50;;;23.10;66.00;;;;;;5063450;28;20029;-58
2022/06/06 06:29:07;;;;;;;7.03;2.72;;;23.20;65.50;;;;;;5060900;28;20025;-58
2022/06/06 06:31:42;;;;;;;7.07;2.70;;;23.30;65.10;;;;;;5060867;28;20334;-60
2022/06/06 06:34:26;;;;;;;4.57;2.60;;;23.40;64.80;;;;;;5064905;28;20116;-60
2022/06/06 06:36:57;;;;;;;;;;;23.60;64.70;;;;;;5062766;28;20059;-59
2022/06/06 06:39:43;;;;;;;4.78;2.75;;;23.80;63.10;;;;;;5058477;28;19974;-59
2022/06/06 06:42:37;;;;;;;5.35;2.50;;;24.00;62.30;;;;;;5035408;28;20029;-60
2022/06/06 06:45:19;;;;;;;5.43;2.40;;;24.10;61.80;;;;;;5079602;28;20120;-60
2022/06/06 06:47:52;;;;;;;5.20;2.92;;;24.30;61.00;;;;;;5082430;28;20089;-60
2022/06/06 06:50:50;;;;;;;7.68;2.47;;;25.10;59.70;;;;;;5082635;28;20488;-60
2022/06/06 06:53:35;;;;;;;3.80;2.42;;;26.30;56.50;;;;;;5093065;28;20078;-60
2022/06/06 06:56:04;;;;;;;6.00;2.90;;;27.40;53.20;;;;;;5079108;28;20410;-60
2022/06/06 06:58:52;;;;;;;4.70;2.50;;;28.20;52.50;;;;;;5077254;28;20035;-60
2022/06/06 07:08:32;;;;;;;4.15;2.72;;;30.20;47.80;;;;;;5079588;28;20032;-60
2022/06/06 07:10:35;;;;;;;3.53;2.55;;;33.60;40.90;;;;;;5082960;28;20039;-60
2022/06/06 07:13:26;;;;;;;6.47;2.33;;;36.00;37.40;;;;;;5081593;28;20087;-59
2022/06/06 07:15:57;;;;;;;6.55;2.25;;;37.70;34.70;;;;;;5083784;28;20024;-60
2022/06/06 07:18:29;;;;;;;5.38;2.10;;;38.90;32.90;;;;;;5086477;28;20055;-60
2022/06/06 07:20:56;;;;;;;4.35;1.92;;;38.70;32.30;;;;;;5082127;28;20054;-60
2022/06/06 07:23:25;;;;;;;3.17;2.15;;;37.00;33.10;;;;;;5089194;28;20113;-60
2022/06/06 07:25:54;;;;;;;4.03;1.88;;;35.70;34.90;;;;;;5076995;28;20119;-60
2022/06/06 07:28:24;;;;;;;4.18;2.35;;;35.40;35.10;;;;;;5088930;28;20084;-60
2022/06/06 07:31:10;;;;;;;4.00;2.38;;;34.90;35.70;;;;;;5083887;28;20052;-60
2022/06/06 07:33:51;;;;;;;3.78;2.20;;;34.60;35.90;;;;;;5080443;28;20063;-60
2022/06/06 07:36:54;;;;;;;3.30;1.98;;;33.70;37.00;;;;;;5085316;28;20162;-60
2022/06/06 07:39:20;;;;;;;6.18;2.38;;;32.70;38.70;;;;;;5083187;28;20051;-60
2022/06/06 07:42:17;;;;;;;6.82;2.17;;;32.60;39.40;;;;;;5081293;28;20136;-60
2022/06/06 07:45:13;;;;;;;5.25;2.20;;;33.30;39.20;;;;;;5081092;28;20550;-60
2022/06/06 07:47:48;;;;;;;4.35;2.25;;;34.40;36.90;;;;;;5074074;28;20025;-60
2022/06/06 07:50:37;;;;;;;4.03;2.53;;;34.80;35.80;;;;;;5078775;28;20104;-60
2022/06/06 07:53:17;;;;;;;4.60;2.58;;;35.20;35.70;;;;;;5082932;28;20036;-67
2022/06/06 07:55:55;;;;;;;4.38;2.60;;;35.90;35.20;;;;;;5081344;28;20025;-67
2022/06/06 07:58:37;;;;;;;4.80;2.08;;;37.00;33.60;;;;;;5079739;28;20028;-65
2022/06/06 08:01:15;;;;;;;3.70;2.08;;;37.40;32.80;;;;;;5078173;28;20035;-67
2022/06/06 08:03:59;;;;;;;3.92;2.00;;;37.50;32.90;;;;;;5078957;28;20048;-64
2022/06/06 08:06:54;;;;;;;6.78;2.28;;;38.20;32.40;;;;;;5080848;28;20028;-67
2022/06/06 08:09:41;;;;;;;4.57;2.00;;;39.40;31.00;;;;;;5074437;28;20398;-67
2022/06/06 08:12:25;;;;;;;2.75;2.00;;;39.70;30.00;;;;;;5075731;28;20384;-68
2022/06/06 08:15:20;;;;;;;4.57;1.88;;;39.90;29.60;;;;;;5077240;28;20036;-66
2022/06/06 08:18:18;;;;;;;7.65;2.00;;;40.20;29.30;;;;;;5054449;28;20486;-65
2022/06/06 08:21:16;;;;;;;5.35;1.98;;;39.70;29.30;;;;;;5077288;28;20466;-67
2022/06/06 08:23:43;;;;;;;2.85;2.05;;;39.30;29.80;;;;;;5049826;28;20127;-66
2022/06/06 08:26:11;;;;;;;3.33;1.85;;;38.90;30.00;;;;;;5077540;28;20012;-66
2022/06/06 08:28:40;;;;;;;4.00;1.80;;;38.90;30.10;;;;;;5074130;28;20549;-65
2022/06/06 08:31:07;;;;;;;7.53;1.70;;;39.10;30.10;;;;;;5074665;28;20032;-65
2022/06/06 08:33:33;;;;;;;2.80;1.70;;;39.20;29.80;;;;;;5081510;28;20465;-66
2022/06/06 08:36:21;;;;;;;6.35;4.80;;;38.70;30.00;;;;;;5080306;28;20050;-66
2022/06/06 08:38:50;;;;;;;2.65;1.80;;;38.20;30.60;;;;;;5075688;28;20032;-65
2022/06/06 08:41:53;;;;;;;4.78;1.67;;;37.80;31.00;;;;;;5078489;28;20126;-67
2022/06/06 08:44:34;;;;;;;3.13;1.53;;;37.90;30.70;;;;;;5057368;28;20120;-69
2022/06/06 08:47:13;;;;;;;3.88;2.00;;;37.60;31.20;;;;;;5053304;28;20033;-66
2022/06/06 08:52:47;;;;;;;5.07;2.78;;;38.70;30.60;;;;;;5062684;28;20131;-66
2022/06/06 08:55:32;;;;;;;9.65;5.50;;;41.00;29.10;;;;;;5060228;28;20024;-67
2022/06/06 08:58:34;;;;;;;3.80;2.92;;;43.20;27.60;;;;;;5060433;28;20057;-67
2022/06/06 09:01:29;;;;;;;3.08;2.17;;;45.40;26.50;;;;;;5061027;28;20048;-67
2022/06/06 09:04:38;;;;;;;3.88;2.03;;;46.10;25.60;;;;;;5060290;28;20099;-68
2022/06/06 09:07:36;;;;;;;2.20;2.00;;;45.70;25.50;;;;;;5019003;28;20054;-67
2022/06/06 09:10:31;;;;;;;6.25;2.17;;;45.80;25.50;;;;;;5059070;28;20108;-67
2022/06/06 09:13:04;;;;;;;3.13;1.60;;;46.20;25.20;;;;;;5057126;28;20059;-66
2022/06/06 09:15:42;;;;;;;6.43;1.90;;;46.60;25.00;;;;;;5040138;28;20037;-69
2022/06/06 09:18:43;;;;;;;4.35;1.90;;;46.40;25.00;;;;;;5062161;28;20104;-65
2022/06/06 09:21:38;;;;;;;3.22;1.40;;;45.30;25.00;;;;;;5059853;28;20527;-66
2022/06/06 09:24:19;;;;;;;3.75;1.67;;;42.60;26.50;;;;;;5060130;28;20053;-66
2022/06/06 09:27:26;;;;;;;3.38;1.65;;;39.90;28.00;;;;;;5058134;28;20032;-66
2022/06/06 09:30:16;;;;;;;2.88;1.63;;;37.70;29.90;;;;;;5047566;28;20032;-67
2022/06/06 09:33:19;;;;;;;2.40;1.67;;;36.10;31.70;;;;;;5039260;28;20025;-67
2022/06/06 09:36:10;;;;;;;6.43;1.83;;;34.80;33.20;;;;;;5059068;28;20477;-65
2022/06/06 09:39:07;;;;;;;3.45;1.88;;;34.00;34.70;;;;;;5058174;28;20055;-66
2022/06/06 09:41:40;;;;;;;3.47;1.58;;;33.40;35.60;;;;;;5055425;28;20045;-66
2022/06/06 09:44:25;;;;;;;;;;;33.10;36.30;;;;;;5058855;28;20068;-65
2022/06/06 09:46:59;;;;;;;5.57;1.90;;;32.80;36.70;;;;;;5047999;28;20273;-65
2022/06/06 09:49:33;;;;;;;4.47;1.80;;;32.60;37.30;;;;;;5060763;28;20021;-66
2022/06/06 09:52:17;;;;;;;3.50;1.92;;;32.20;37.80;;;;;;5063781;28;20025;-66
2022/06/06 10:01:09;;;;;;;3.35;1.77;;;31.50;39.40;;;;;;5065428;28;20504;-66
2022/06/06 10:03:56;;;;;;;3.67;1.98;;;31.40;39.50;;;;;;5058903;28;20134;-68
2022/06/06 10:06:48;;;;;;;3.25;1.80;;;31.40;39.50;;;;;;5065028;28;20101;-66
2022/06/06 10:09:23;;;;;;;2.53;1.90;;;31.50;39.20;;;;;;5070337;28;20024;-66
2022/06/06 10:12:02;;;;;;;4.47;1.98;;;31.30;39.10;;;;;;5059478;28;20032;-66
2022/06/06 10:14:59;;;;;;;3.20;1.80;;;31.10;39.60;;;;;;5049799;28;20044;-65
2022/06/06 10:17:46;;;;;;;4.22;1.92;;;30.90;39.80;;;;;;5053710;28;20029;-66
2022/06/06 10:20:17;;;;;;;5.20;1.83;;;30.90;40.00;;;;;;5044581;28;20033;-66
2022/06/06 10:22:49;;;;;;;3.08;2.03;;;31.00;40.20;;;;;;5061703;28;20027;-64
2022/06/06 10:25:26;;;;;;;4.65;1.80;;;31.20;40.10;;;;;;5063149;28;20029;-65
2022/06/06 10:28:31;;;;;;;3.90;1.88;;;31.20;39.40;;;;;;5062867;28;20190;-66
2022/06/06 10:31:32;;;;;;;2.67;1.85;;;31.10;39.30;;;;;;5016385;28;20396;-67
2022/06/06 10:34:16;;;;;;;2.72;1.70;;;31.00;39.40;;;;;;5050420;28;20108;-66
2022/06/06 10:36:42;;;;;;;4.15;2.10;;;31.00;39.80;;;;;;5043191;28;20029;-67
2022/06/06 10:39:55;;;;;;;5.25;2.10;;;31.00;40.10;;;;;;5050718;28;20035;-66
2022/06/06 10:42:44;;;;;;;3.92;2.10;;;31.00;40.50;;;;;;5058430;28;20070;-67
2022/06/06 10:45:19;;;;;;;5.75;2.28;;;31.00;40.50;;;;;;5060849;28;20481;-67
2022/06/06 10:47:59;;;;;;;3.80;2.65;;;30.80;40.40;;;;;;5058253;28;20029;-73
2022/06/06 10:50:37;;;;;;;3.10;1.90;;;30.70;40.70;;;;;;5046677;28;20998;-73
2022/06/06 10:53:38;;;;;;;3.28;2.30;;;30.80;40.80;;;;;;5043583;28;20123;-73
2022/06/06 10:56:43;;;;;;;4.55;2.10;;;31.10;40.50;;;;;;4951768;28;20036;-73
2022/06/06 10:59:33;;;;;;;4.95;2.00;;;31.30;40.00;;;;;;5058277;28;20025;-65
2022/06/06 11:02:23;;;;;;;2.80;1.85;;;31.30;39.70;;;;;;5056683;28;20033;-66
2022/06/06 11:05:12;;;;;;;6.45;3.00;;;31.10;39.80;;;;;;5061717;28;20055;-65
2022/06/06 11:07:48;;;;;;;2.95;1.95;;;30.90;40.20;;;;;;5063012;28;20025;-66
2022/06/06 11:10:23;;;;;;;4.22;2.08;;;30.90;40.20;;;;;;5064874;28;20021;-66
2022/06/06 11:13:13;;;;;;;5.05;2.17;;;30.80;40.40;;;;;;5059555;28;20470;-65
2022/06/06 11:15:47;;;;;;;4.90;2.30;;;30.90;40.40;;;;;;5061194;28;20055;-67
2022/06/06 11:18:37;;;;;;;3.58;1.90;;;30.90;40.30;;;;;;5066813;28;20017;-66
2022/06/06 11:21:19;;;;;;;2.90;1.85;;;30.80;40.00;;;;;;5056812;28;20028;-66
2022/06/06 11:24:04;;;;;;;8.77;4.95;;;30.80;40.20;;;;;;5068724;28;20036;-66
2022/06/06 11:26:49;;;;;;;7.30;5.22;;;30.70;40.30;;;;;;5058705;28;20058;-66
2022/06/06 11:29:26;;;;;;;4.28;2.10;;;30.70;40.40;;;;;;5070191;28;20100;-65
2022/06/06 11:32:20;;;;;;;3.30;2.13;;;30.60;40.20;;;;;;5058610;28;20032;-66
2022/06/06 11:35:22;;;;;;;4.00;2.35;;;30.60;40.20;;;;;;5064654;28;20104;-65
2022/06/06 11:37:57;;;;;;;5.43;2.10;;;30.60;40.40;;;;;;5042624;28;20113;-67
2022/06/06 11:40:25;;;;;;;5.35;2.20;;;30.90;39.60;;;;;;5046706;28;20430;-65
2022/06/06 11:43:19;;;;;;;4.53;1.90;;;31.10;39.20;;;;;;5046560;28;20087;-62
2022/06/06 11:46:06;;;;;;;5.53;2.17;;;31.40;38.80;;;;;;5078444;28;20046;-66
2022/06/06 11:49:13;;;;;;;3.65;1.92;;;31.50;38.70;;;;;;5076943;28;20036;-65
2022/06/06 11:51:45;;;;;;;3.78;1.88;;;31.50;38.20;;;;;;5086903;28;20085;-64
2022/06/06 11:54:36;;;;;;;6.00;1.70;;;31.40;38.20;;;;;;5078381;28;20036;-66
2022/06/06 11:57:22;;;;;;;3.28;2.05;;;31.40;38.50;;;;;;5089301;28;20028;-66
2022/06/06 11:59:57;;;;;;;3.90;1.70;;;31.50;38.40;;;;;;5089733;28;20085;-65
2022/06/06 12:03:00;;;;;;;4.15;2.28;;;31.40;38.30;;;;;;5086266;28;20107;-66
2022/06/06 12:06:03;;;;;;;5.25;2.15;;;31.10;38.70;;;;;;5084637;28;20032;-64
2022/06/06 12:09:01;;;;;;;4.03;2.15;;;31.10;39.40;;;;;;5085014;28;20023;-65
2022/06/06 12:11:50;;;;;;;3.97;1.95;;;31.10;39.50;;;;;;4999163;28;20042;-65
2022/06/06 12:14:44;;;;;;;4.60;2.97;;;31.00;39.40;;;;;;5076845;28;20338;-64
2022/06/06 12:17:16;;;;;;;3.72;2.55;;;31.00;39.80;;;;;;5071763;28;20020;-66
2022/06/06 12:20:16;;;;;;;3.88;1.90;;;31.10;39.60;;;;;;5091674;28;20043;-66
2022/06/06 12:23:07;;;;;;;4.18;1.95;;;31.30;38.70;;;;;;5078084;28;20062;-65
2022/06/06 12:26:10;;;;;;;2.83;1.80;;;31.50;38.30;;;;;;5078764;28;20117;-67
2022/06/06 12:28:58;;;;;;;3.28;2.05;;;31.60;38.10;;;;;;5081863;28;20099;-65
2022/06/06 12:31:47;;;;;;;3.35;1.77;;;31.70;37.50;;;;;;5075523;28;20029;-65
2022/06/06 12:34:22;;;;;;;3.15;1.90;;;31.80;37.80;;;;;;5094462;28;20028;-65
2022/06/06 12:37:46;;;;;;;4.53;2.20;;;32.00;37.80;;;;;;5087794;28;20028;-66
2022/06/06 12:40:15;;;;;;;6.03;2.03;;;31.90;37.50;;;;;;5001734;28;20541;-66
2022/06/06 12:42:59;;;;;;;2.83;1.75;;;31.90;37.90;;;;;;5083122;28;20044;-66
2022/06/06 12:45:44;;;;;;;3.10;1.92;;;31.80;37.90;;;;;;5060705;28;20021;-66
2022/06/06 12:48:38;;;;;;;4.47;2.35;;;31.80;37.80;;;;;;5040015;28;20031;-66
2022/06/06 12:51:32;;;;;;;5.75;2.22;;;31.70;37.60;;;;;;5052989;28;20056;-66
2022/06/06 12:54:18;;;;;;;5.20;1.98;;;31.80;38.10;;;;;;5073650;28;20444;-66
2022/06/06 12:56:56;;;;;;;2.80;1.90;;;32.00;38.00;;;;;;5073601;28;20124;-66
2022/06/06 12:59:54;;;;;;;5.97;1.90;;;32.00;37.40;;;;;;5070971;28;20016;-66
2022/06/06 13:02:27;;;;;;;3.08;2.00;;;31.80;37.80;;;;;;5062219;28;20049;-65
2022/06/06 13:05:44;;;;;;;3.00;1.88;;;31.70;38.30;;;;;;5045678;28;20028;-67
2022/06/06 13:08:50;;;;;;;3.92;1.98;;;31.60;38.00;;;;;;5004539;28;20466;-66
2022/06/06 13:11:53;;;;;;;2.97;1.90;;;31.50;38.00;;;;;;5069414;28;20032;-65
2022/06/06 13:14:37;;;;;;;5.78;2.30;;;31.10;38.90;;;;;;5061398;28;20058;-66
2022/06/06 13:17:31;;;;;;;4.13;2.22;;;31.10;39.50;;;;;;5057899;28;20020;-65
2022/06/06 13:20:10;;;;;;;7.50;2.60;;;31.30;39.40;;;;;;5072032;28;20093;-61
2022/06/06 13:22:59;;;;;;;17.05;12.40;;;31.50;39.10;;;;;;5065742;28;20033;-65
2022/06/06 13:25:51;;;;;;;4.53;2.50;;;31.30;39.00;;;;;;5064721;28;20036;-65
2022/06/06 13:28:29;;;;;;;6.15;2.35;;;31.10;39.50;;;;;;5046045;28;20032;-62
2022/06/06 13:31:17;;;;;;;5.00;2.33;;;31.10;39.70;;;;;;5057477;28;20052;-62
2022/06/06 13:34:01;;;;;;;4.03;2.70;;;31.00;39.60;;;;;;5054293;28;20033;-61
2022/06/06 13:36:42;;;;;;;6.75;3.53;;;30.90;39.50;;;;;;5066411;28;20050;-64
2022/06/06 13:39:15;;;;;;;3.40;2.10;;;30.70;39.90;;;;;;5066315;28;20021;-63
2022/06/06 13:42:05;;;;;;;3.92;2.13;;;30.40;40.50;;;;;;5071878;28;20028;-64
2022/06/06 13:44:54;;;;;;;2.92;2.25;;;30.30;40.90;;;;;;5062325;28;20048;-64
2022/06/06 13:47:41;;;;;;;4.35;2.00;;;30.30;40.70;;;;;;5047972;28;20115;-62
2022/06/06 13:50:12;;;;;;;3.40;2.03;;;30.60;40.40;;;;;;5085478;28;20500;-64
2022/06/06 13:52:55;;;;;;;6.35;3.95;;;30.80;40.00;;;;;;5084852;28;20508;-64
2022/06/06 13:55:37;;;;;;;4.38;2.35;;;31.20;39.80;;;;;;5085294;28;20363;-64
2022/06/06 13:58:18;;;;;;;2.90;2.17;;;31.50;39.10;;;;;;5082865;28;20443;-64
2022/06/06 14:01:05;;;;;;;5.03;2.10;;;31.40;38.80;;;;;;5090936;28;20388;-61
2022/06/06 14:03:41;;;;;;;4.00;2.10;;;31.50;38.50;;;;;;5082126;28;20433;-64
2022/06/06 14:06:16;;;;;;;4.20;1.90;;;31.60;38.00;;;;;;5074462;28;20032;-65
2022/06/06 14:08:54;;;;;;;2.30;1.90;;;31.30;38.00;;;;;;5082452;28;20029;-61
2022/06/06 14:11:56;;;;;;;4.35;2.55;;;31.10;38.80;;;;;;5080478;28;20043;-62
2022/06/06 14:14:24;;;;;;;5.35;2.38;;;31.00;38.80;;;;;;5084934;28;20051;-62
2022/06/06 14:17:03;;;;;;;5.93;3.55;;;31.30;39.10;;;;;;5084494;28;20032;-64